メインページ
METAR-TAF:

METAR-TAF

空港 :

モントリオール・ミラベル国際空港

モントリオール・ミラベル, ケベック州, カナダ

緯度: 45-41N, 経度: 074-02W, 海抜: 82m

現時点の気象観測

当レポートは32分前の01:00(UTC)に作成
無風
気温 15°C
湿度 77%
気圧 1026 hPa
視程: 40.2km
晴天

METAR: CYMX 250100Z 00000KT 25SM SKC 15/11 A3030 RMK SLP264

時間: 21:32 (01:32 UTC)

予報

当レポートは1時間54分前の23:38(UTC)に作成
予報は25日の 00時(UTC)から 25日の 24時(UTC)まで有効
変向風 3kt
視程: 10km
高度4000ftの雲はほとんどない
確率 30%
25日の 06時(UTC)から 25日の 10時(UTC)まで
視程: 1.6km
25日の 13時(UTC)から 25日の 15時(UTC)まで徐々に
の風 6kt

TAF: CYMX 242338Z 2500/2524 VRB03KT P6SM FEW040 PROB30 2506/2510 1SM BR BECMG 2513/2515 08006KT RMK NXT FCST BY 250600Z

4,000以上の空港の気象観測と天気予報(METAR報とTAF報)

利用可能な観測所は地図上に黄色い丸と赤い丸で示す。

丸の上にカーソルを重ねると観測所名を参照できる。

次にクリックすると気象観測と天気予報を参照できる。

マップの切り替え:黒色「×」印の緑ボタンをクリックして拡大、「-」印の緑ボタンをクリックして縮小、緑色の三角印をクリックして隣りの地図に切り替え


METAR-TAF: